createdAt,value
2018-05-21T00:00:50.055Z,11.70
2018-05-21T00:03:17.555Z,11.70
2018-05-21T00:05:46.787Z,11.70
2018-05-21T00:08:15.294Z,11.70
2018-05-21T00:10:42.876Z,11.70
2018-05-21T00:13:10.486Z,11.70
2018-05-21T00:15:39.211Z,11.60
2018-05-21T00:18:06.711Z,11.50
2018-05-21T00:20:34.309Z,11.50
2018-05-21T00:23:05.764Z,11.50
2018-05-21T00:25:33.289Z,11.50
2018-05-21T00:28:00.845Z,11.40
2018-05-21T00:30:28.357Z,11.40
2018-05-21T00:32:55.871Z,11.40
2018-05-21T00:35:25.383Z,11.40
2018-05-21T00:37:53.829Z,11.30
2018-05-21T00:40:27.303Z,11.30
2018-05-21T00:42:57.495Z,11.30
2018-05-21T00:45:26.933Z,11.20
2018-05-21T00:48:26.890Z,11.30
2018-05-21T01:04:22.208Z,11.10
2018-05-21T01:06:51.395Z,10.90
2018-05-21T01:09:20.847Z,10.90
2018-05-21T01:11:51.414Z,10.90
2018-05-21T01:14:19.837Z,11.00
2018-05-21T01:16:48.263Z,11.00
2018-05-21T01:19:35.729Z,11.10
2018-05-21T01:22:05.198Z,11.00
2018-05-21T01:38:03.719Z,10.90
2018-05-21T01:40:32.903Z,10.90
2018-05-21T01:43:00.410Z,10.80
2018-05-21T01:45:28.833Z,10.80
2018-05-21T01:47:56.357Z,10.70
2018-05-21T01:50:42.631Z,10.70
2018-05-21T01:53:10.141Z,10.60
2018-05-21T01:55:40.600Z,10.60
2018-05-21T01:58:08.158Z,10.70
2018-05-21T02:14:13.730Z,10.50
2018-05-21T02:16:41.260Z,10.50
2018-05-21T02:19:11.449Z,10.50
2018-05-21T02:21:39.003Z,10.40
2018-05-21T02:24:11.554Z,10.40
2018-05-21T02:26:40.000Z,10.50
2018-05-21T02:29:07.511Z,10.40
2018-05-21T02:31:37.024Z,10.60
2018-05-21T02:34:27.201Z,10.60
2018-05-21T02:36:56.682Z,10.50
2018-05-21T02:53:03.401Z,10.60
2018-05-21T02:55:32.943Z,10.60
2018-05-21T02:58:01.373Z,10.60
2018-05-21T03:00:46.750Z,10.50
2018-05-21T03:03:14.329Z,10.50
2018-05-21T03:05:41.903Z,10.50
2018-05-21T03:08:09.507Z,10.60
2018-05-21T03:10:38.979Z,10.70
2018-05-21T03:13:07.482Z,10.70
2018-05-21T03:15:57.439Z,10.60
2018-05-21T03:18:24.947Z,10.60
2018-05-21T03:34:25.204Z,10.50
2018-05-21T03:36:53.475Z,10.50
2018-05-21T03:39:21.051Z,10.50
2018-05-21T03:41:50.014Z,10.40
2018-05-21T03:44:18.436Z,10.40
2018-05-21T03:46:50.700Z,10.40
2018-05-21T03:49:18.992Z,10.50
2018-05-21T03:51:46.537Z,10.50
2018-05-21T03:54:14.059Z,10.50
2018-05-21T03:57:02.287Z,10.50
2018-05-21T04:13:12.089Z,10.90
2018-05-21T04:15:40.525Z,11.20
2018-05-21T04:18:08.961Z,11.60
2018-05-21T04:20:36.512Z,12.20
2018-05-21T04:23:22.866Z,12.70
2018-05-21T04:39:19.210Z,15.00
2018-05-21T04:41:46.726Z,14.90
2018-05-21T04:44:15.034Z,15.80
2018-05-21T04:46:44.488Z,15.80
2018-05-21T04:49:13.892Z,16.10
2018-05-21T04:51:43.309Z,16.50
2018-05-21T04:54:10.895Z,16.50
2018-05-21T04:56:40.303Z,16.70
2018-05-21T04:59:09.709Z,16.70
2018-05-21T05:01:38.149Z,16.90
2018-05-21T05:04:05.728Z,17.20
2018-05-21T05:06:33.244Z,17.50
2018-05-21T05:09:00.773Z,18.00
2018-05-21T05:11:30.289Z,18.20
2018-05-21T05:14:16.807Z,18.20
2018-05-21T05:30:10.396Z,17.50
2018-05-21T05:32:37.898Z,17.10
2018-05-21T05:35:06.323Z,16.70
2018-05-21T05:37:34.605Z,15.30
2018-05-21T05:40:02.875Z,15.00
2018-05-21T05:42:32.124Z,14.80
2018-05-21T05:45:02.606Z,14.80
2018-05-21T05:47:30.884Z,14.80
2018-05-21T05:50:01.095Z,15.00
2018-05-21T05:52:28.652Z,15.00
2018-05-21T05:54:58.122Z,14.80
2018-05-21T05:57:52.351Z,14.40
2018-05-21T06:00:21.791Z,14.30
2018-05-21T06:02:50.211Z,14.40
2018-05-21T06:18:43.205Z,14.60
2018-05-21T06:21:11.639Z,14.60
2018-05-21T06:23:39.163Z,14.60
2018-05-21T06:26:06.689Z,14.70
2018-05-21T06:28:35.135Z,14.80
2018-05-21T06:31:02.674Z,15.50
2018-05-21T06:36:29.689Z,16.80
2018-05-21T06:38:57.203Z,16.70
2018-05-21T06:41:24.724Z,16.90
2018-05-21T06:43:53.190Z,16.90
2018-05-21T06:46:21.215Z,17.00
2018-05-21T06:48:48.735Z,17.30
2018-05-21T06:51:16.242Z,17.70
2018-05-21T06:53:43.780Z,17.60
2018-05-21T06:56:12.193Z,17.30
2018-05-21T06:58:39.763Z,17.10
2018-05-21T07:01:08.261Z,17.10
2018-05-21T07:03:57.341Z,17.10
2018-05-21T07:09:22.133Z,17.10
2018-05-21T07:11:50.573Z,17.00
2018-05-21T07:14:38.694Z,16.40
2018-05-21T07:17:07.033Z,16.30
2018-05-21T07:33:06.596Z,16.50
2018-05-21T07:35:36.041Z,16.60
2018-05-21T07:38:04.491Z,16.30
2018-05-21T07:40:32.959Z,16.40
2018-05-21T07:43:03.405Z,16.50
2018-05-21T07:45:31.837Z,16.20
2018-05-21T07:47:59.359Z,16.10
2018-05-21T07:50:26.906Z,16.40
2018-05-21T07:52:54.426Z,16.40
2018-05-21T07:55:23.005Z,16.40
2018-05-21T07:57:50.493Z,16.40
2018-05-21T08:00:18.951Z,16.50
2018-05-21T08:09:08.974Z,16.80
2018-05-21T08:11:37.110Z,16.60
2018-05-21T08:14:05.810Z,16.70
2018-05-21T08:16:34.049Z,16.70
2018-05-21T08:19:03.003Z,16.60
2018-05-21T08:21:34.834Z,16.80
2018-05-21T08:24:05.401Z,16.90
2018-05-21T08:26:36.362Z,17.10
2018-05-21T08:29:05.076Z,16.90
2018-05-21T08:31:33.072Z,17.50
2018-05-21T08:47:42.303Z,17.50
2018-05-21T08:50:10.868Z,17.70
2018-05-21T08:52:38.467Z,18.10
2018-05-21T08:55:08.012Z,17.50
2018-05-21T08:57:37.408Z,17.80
2018-05-21T09:00:04.940Z,17.40
2018-05-21T09:02:33.545Z,17.50
2018-05-21T09:05:01.060Z,17.80
2018-05-21T09:07:30.507Z,18.00
2018-05-21T09:10:03.562Z,18.30
2018-05-21T09:12:49.762Z,18.00
2018-05-21T09:15:17.578Z,17.70
2018-05-21T09:31:24.157Z,18.30
2018-05-21T09:33:52.674Z,18.00
2018-05-21T09:36:20.194Z,17.80
2018-05-21T09:38:47.718Z,17.70
2018-05-21T09:41:16.009Z,17.90
2018-05-21T09:43:43.550Z,17.90
2018-05-21T09:46:12.029Z,18.20
2018-05-21T09:49:03.327Z,18.60
2018-05-21T09:51:31.813Z,18.60
2018-05-21T09:53:59.332Z,18.90
2018-05-21T09:56:27.792Z,19.10
2018-05-21T10:01:35.116Z,19.10
2018-05-21T10:04:02.637Z,19.00
2018-05-21T10:06:49.987Z,19.20
2018-05-21T10:22:49.195Z,19.30
2018-05-21T10:25:16.724Z,19.20
2018-05-21T10:27:44.245Z,19.50
2018-05-21T10:30:30.499Z,19.60
2018-05-21T10:32:58.068Z,19.70
2018-05-21T10:35:27.556Z,19.80
2018-05-21T10:37:57.225Z,19.40
2018-05-21T10:53:57.890Z,20.00
2018-05-21T10:56:27.404Z,19.90
2018-05-21T10:58:56.938Z,19.90
2018-05-21T11:01:48.202Z,20.10
2018-05-21T11:04:16.643Z,20.10
2018-05-21T11:06:44.159Z,20.00
2018-05-21T11:09:11.711Z,20.00
2018-05-21T11:11:39.229Z,20.30
2018-05-21T11:14:08.658Z,20.30
2018-05-21T11:16:55.788Z,20.60
2018-05-21T11:19:25.000Z,20.70
2018-05-21T11:21:54.088Z,20.70
2018-05-21T11:24:23.575Z,20.60
2018-05-21T11:26:51.077Z,20.90
2018-05-21T11:32:18.770Z,20.40
2018-05-21T11:34:48.234Z,20.70
2018-05-21T11:37:16.517Z,20.60
2018-05-21T11:39:44.810Z,20.60
2018-05-21T11:42:13.319Z,20.50
2018-05-21T11:44:41.754Z,20.40
2018-05-21T11:47:09.268Z,20.60
2018-05-21T11:49:36.808Z,20.70
2018-05-21T11:52:05.267Z,21.00
2018-05-21T11:54:33.714Z,21.00
2018-05-21T11:57:01.271Z,21.10
2018-05-21T11:59:30.797Z,21.40
2018-05-21T12:01:59.354Z,21.10
2018-05-21T12:04:28.756Z,21.30
2018-05-21T12:06:56.294Z,21.40
2018-05-21T12:09:24.595Z,21.70
2018-05-21T12:11:53.073Z,21.70
2018-05-21T12:14:20.581Z,21.70
2018-05-21T12:16:48.121Z,21.80
2018-05-21T12:19:17.613Z,21.80
2018-05-21T12:21:45.262Z,21.70
2018-05-21T12:24:14.484Z,21.80
2018-05-21T12:26:42.046Z,21.80
2018-05-21T12:29:11.548Z,21.70
2018-05-21T12:31:39.146Z,21.80
2018-05-21T12:34:08.615Z,22.00
2018-05-21T12:36:36.893Z,21.90
2018-05-21T12:39:06.070Z,22.20
2018-05-21T12:41:34.490Z,22.20
2018-05-21T12:44:02.772Z,22.30
2018-05-21T12:46:31.979Z,22.20
2018-05-21T12:49:01.385Z,22.20
2018-05-21T12:51:29.114Z,22.40
2018-05-21T12:53:56.660Z,22.60
2018-05-21T12:56:26.399Z,22.70
2018-05-21T12:58:53.875Z,22.80
2018-05-21T13:01:22.167Z,22.70
2018-05-21T13:03:51.406Z,22.80
2018-05-21T13:06:20.840Z,22.80
2018-05-21T13:09:07.015Z,22.90
2018-05-21T13:11:34.611Z,23.00
2018-05-21T13:14:04.065Z,22.90
2018-05-21T13:16:33.517Z,22.80
2018-05-21T13:21:56.818Z,22.80
2018-05-21T13:24:26.323Z,22.90
2018-05-21T13:27:13.450Z,22.90
2018-05-21T13:29:41.024Z,22.80
2018-05-21T13:32:09.466Z,22.80
2018-05-21T13:34:37.934Z,22.60
2018-05-21T13:37:05.459Z,22.20
2018-05-21T13:39:33.896Z,21.80
2018-05-21T13:42:01.402Z,21.80
2018-05-21T13:44:28.924Z,22.00
2018-05-21T13:46:56.477Z,21.80
2018-05-21T13:49:25.018Z,21.70
2018-05-21T13:51:52.544Z,21.80
2018-05-21T13:54:20.039Z,21.60
2018-05-21T13:56:48.535Z,21.60
2018-05-21T13:59:16.094Z,21.50
2018-05-21T14:01:43.601Z,21.40
2018-05-21T14:04:12.036Z,21.50
2018-05-21T14:06:58.380Z,21.40
2018-05-21T14:09:27.874Z,21.40
2018-05-21T14:11:55.377Z,21.30
2018-05-21T14:27:47.969Z,22.30
2018-05-21T14:30:16.417Z,22.20
2018-05-21T14:32:44.872Z,22.00
2018-05-21T14:35:12.461Z,21.80
2018-05-21T14:37:41.928Z,21.70
2018-05-21T14:40:11.545Z,21.50
2018-05-21T14:43:00.660Z,21.40
2018-05-21T14:45:29.158Z,21.50
2018-05-21T14:47:56.683Z,21.40
2018-05-21T14:50:24.200Z,21.40
2018-05-21T14:52:53.639Z,21.40
2018-05-21T14:55:22.063Z,21.50
2018-05-21T14:57:49.601Z,21.60
2018-05-21T15:00:18.072Z,21.70
2018-05-21T15:03:04.418Z,21.70
2018-05-21T15:05:31.918Z,21.80
2018-05-21T15:08:00.374Z,21.90
2018-05-21T15:10:27.976Z,22.00
2018-05-21T15:12:56.312Z,22.30
2018-05-21T15:15:23.829Z,22.30
2018-05-21T15:17:51.377Z,22.30
2018-05-21T15:20:18.891Z,22.30
2018-05-21T15:22:47.317Z,22.40
2018-05-21T15:25:16.772Z,22.90
2018-05-21T15:28:03.252Z,23.20
2018-05-21T15:30:32.476Z,22.90
2018-05-21T15:32:59.964Z,22.80
2018-05-21T15:48:52.636Z,22.60
2018-05-21T15:51:21.878Z,22.20
2018-05-21T15:53:49.389Z,22.20
2018-05-21T15:56:16.899Z,22.10
2018-05-21T15:58:45.335Z,21.90
2018-05-21T16:01:31.526Z,21.80
2018-05-21T16:03:59.929Z,21.80
2018-05-21T16:06:28.188Z,21.70
2018-05-21T16:08:57.641Z,21.70
2018-05-21T16:11:26.059Z,21.70
2018-05-21T16:13:56.570Z,21.60
2018-05-21T16:16:24.106Z,21.70
2018-05-21T16:19:09.452Z,21.90
2018-05-21T16:21:37.905Z,22.10
2018-05-21T16:37:21.944Z,21.80
2018-05-21T16:39:49.466Z,21.90
2018-05-21T16:42:16.994Z,21.80
2018-05-21T16:44:46.212Z,21.90
2018-05-21T16:47:13.738Z,21.90
2018-05-21T16:49:42.258Z,21.80
2018-05-21T16:52:32.334Z,21.90
2018-05-21T16:55:00.671Z,21.90
2018-05-21T16:57:28.226Z,21.90
2018-05-21T16:59:58.660Z,21.90
2018-05-21T17:02:28.140Z,21.70
2018-05-21T17:04:57.561Z,21.60
2018-05-21T17:07:25.103Z,21.40
2018-05-21T17:09:52.611Z,21.20
2018-05-21T17:12:20.112Z,21.00
2018-05-21T17:14:50.514Z,20.60
2018-05-21T17:17:18.928Z,20.60
2018-05-21T17:19:48.109Z,20.50
2018-05-21T17:22:16.586Z,20.50
2018-05-21T17:24:44.151Z,20.70
2018-05-21T17:27:11.682Z,20.90
2018-05-21T17:29:41.132Z,21.00
2018-05-21T17:32:08.615Z,20.80
2018-05-21T17:34:38.043Z,20.70
2018-05-21T17:37:06.536Z,20.40
2018-05-21T17:39:57.979Z,20.20
2018-05-21T17:42:25.549Z,20.10
2018-05-21T17:44:53.018Z,19.90
2018-05-21T17:47:22.513Z,19.80
2018-05-21T17:49:51.014Z,19.60
2018-05-21T17:52:18.513Z,19.50
2018-05-21T17:54:46.026Z,19.40
2018-05-21T17:57:13.603Z,19.30
2018-05-21T17:59:41.069Z,19.20
2018-05-21T18:02:10.567Z,19.10
2018-05-21T18:04:38.107Z,19.00
2018-05-21T18:07:06.534Z,19.00
2018-05-21T18:09:38.986Z,19.00
2018-05-21T18:12:06.511Z,19.00
2018-05-21T18:14:34.091Z,18.80
2018-05-21T18:17:05.562Z,18.60
2018-05-21T18:19:33.057Z,18.50
2018-05-21T18:22:03.299Z,18.30
2018-05-21T18:24:31.041Z,18.30
2018-05-21T18:26:59.522Z,18.20
2018-05-21T18:29:29.779Z,18.20
2018-05-21T18:32:20.012Z,18.10
2018-05-21T18:37:48.535Z,17.90
2018-05-21T18:40:35.816Z,17.80
2018-05-21T18:43:03.371Z,17.70
2018-05-21T18:45:30.877Z,17.60
2018-05-21T18:47:58.386Z,17.50
2018-05-21T18:50:25.962Z,17.40
2018-05-21T18:52:54.396Z,17.40
2018-05-21T18:55:22.662Z,17.20
2018-05-21T18:57:53.115Z,17.20
2018-05-21T19:00:21.376Z,17.00
2018-05-21T19:03:07.770Z,17.00
2018-05-21T19:05:36.979Z,16.90
2018-05-21T19:08:05.245Z,16.90
2018-05-21T19:10:32.777Z,16.90
2018-05-21T19:26:07.857Z,16.70
2018-05-21T19:28:37.058Z,17.00
2018-05-21T19:31:04.604Z,16.90
2018-05-21T19:33:37.810Z,16.90
2018-05-21T19:36:06.321Z,16.70
2018-05-21T19:38:35.903Z,16.50
2018-05-21T19:41:05.466Z,16.30
2018-05-21T19:43:33.921Z,16.20
2018-05-21T19:46:01.571Z,16.40
2018-05-21T19:48:29.878Z,16.60
2018-05-21T19:50:58.014Z,16.50
2018-05-21T19:53:25.549Z,16.60
2018-05-21T20:09:20.891Z,16.50
2018-05-21T20:11:48.440Z,16.50
2018-05-21T20:14:16.717Z,16.60
2018-05-21T20:16:44.257Z,16.60
2018-05-21T20:19:13.787Z,16.50
2018-05-21T20:21:44.220Z,16.30
2018-05-21T20:24:12.671Z,16.20
2018-05-21T20:26:40.201Z,16.20
2018-05-21T20:29:11.678Z,16.10
2018-05-21T20:31:39.240Z,15.90
2018-05-21T20:34:06.757Z,15.60
2018-05-21T20:36:35.048Z,15.40
2018-05-21T20:39:03.331Z,15.40
2018-05-21T20:41:34.017Z,15.30
2018-05-21T20:44:02.124Z,15.30
2018-05-21T20:46:29.700Z,15.20
2018-05-21T20:49:15.832Z,15.00
2018-05-21T20:51:44.275Z,15.00
2018-05-21T20:54:11.780Z,15.00
2018-05-21T20:56:41.203Z,14.90
2018-05-21T20:59:08.751Z,14.80
2018-05-21T21:01:37.195Z,14.70
2018-05-21T21:04:04.768Z,14.70
2018-05-21T21:06:33.452Z,14.70
2018-05-21T21:09:01.910Z,14.70
2018-05-21T21:11:52.172Z,14.70
2018-05-21T21:14:19.669Z,14.70
2018-05-21T21:16:47.183Z,14.60
2018-05-21T21:19:14.707Z,14.60
2018-05-21T21:21:42.986Z,14.60
2018-05-21T21:24:11.268Z,14.50
2018-05-21T21:26:39.830Z,14.40
2018-05-21T21:29:09.060Z,14.40
2018-05-21T21:31:37.328Z,14.40
2018-05-21T21:34:23.641Z,14.40
2018-05-21T21:36:52.847Z,14.60
2018-05-21T21:39:21.270Z,14.60
2018-05-21T21:41:50.740Z,14.50
2018-05-21T21:47:15.445Z,14.40
2018-05-21T21:49:42.959Z,14.40
2018-05-21T21:52:10.477Z,14.30
2018-05-21T21:54:37.997Z,14.30
2018-05-21T21:57:05.547Z,14.30
2018-05-21T21:59:51.999Z,14.30
2018-05-21T22:02:19.531Z,14.20
2018-05-21T22:04:47.142Z,14.20
2018-05-21T22:07:14.779Z,14.10
2018-05-21T22:09:44.042Z,14.10
2018-05-21T22:12:11.590Z,14.00
2018-05-21T22:14:39.109Z,14.10
2018-05-21T22:17:08.305Z,13.90
2018-05-21T22:19:39.763Z,13.90
2018-05-21T22:22:08.519Z,14.10
2018-05-21T22:24:36.063Z,14.10
2018-05-21T22:27:03.696Z,14.30
2018-05-21T22:29:51.274Z,14.30
2018-05-21T22:32:18.830Z,14.40
2018-05-21T22:34:47.292Z,14.40
2018-05-21T22:40:17.985Z,14.50
2018-05-21T22:42:45.957Z,14.50
2018-05-21T22:45:13.486Z,14.50
2018-05-21T22:47:40.989Z,14.40
2018-05-21T22:50:08.505Z,14.30
2018-05-21T22:52:36.920Z,14.30
2018-05-21T22:55:04.503Z,14.40
2018-05-21T22:57:33.748Z,14.30
2018-05-21T23:00:01.254Z,14.30
2018-05-21T23:02:29.681Z,14.40
2018-05-21T23:04:57.215Z,14.40
2018-05-21T23:07:25.683Z,14.30
2018-05-21T23:10:12.982Z,14.20
2018-05-21T23:26:13.349Z,13.80
2018-05-21T23:28:42.237Z,13.70
2018-05-21T23:31:10.655Z,13.70
2018-05-21T23:33:40.902Z,13.70
2018-05-21T23:36:09.324Z,13.70
2018-05-21T23:38:37.743Z,13.60
2018-05-21T23:41:05.326Z,13.60
2018-05-21T23:43:52.518Z,13.50
2018-05-21T23:49:25.743Z,13.50
2018-05-21T23:51:53.301Z,13.40
2018-05-21T23:54:21.607Z,13.20
2018-05-21T23:56:49.132Z,13.20
2018-05-21T23:59:16.676Z,13.10
